sensor_id;sensor_type;location;lat;lon;timestamp;temperature;humidity
16625;DHT22;8426;48.496;9.098;2023-04-03T00:03:00;3.20;99.90
16625;DHT22;8426;48.496;9.098;2023-04-03T00:08:04;3.20;99.90
16625;DHT22;8426;48.496;9.098;2023-04-03T00:13:10;3.10;99.90
16625;DHT22;8426;48.496;9.098;2023-04-03T00:18:14;3.10;99.90
16625;DHT22;8426;48.496;9.098;2023-04-03T00:23:18;3.10;99.90
16625;DHT22;8426;48.496;9.098;2023-04-03T00:28:21;3.00;99.90
16625;DHT22;8426;48.496;9.098;2023-04-03T00:33:26;3.10;99.90
16625;DHT22;8426;48.496;9.098;2023-04-03T00:38:30;3.10;99.90
16625;DHT22;8426;48.496;9.098;2023-04-03T00:43:34;3.10;99.90
16625;DHT22;8426;48.496;9.098;2023-04-03T00:48:41;3.00;99.90
16625;DHT22;8426;48.496;9.098;2023-04-03T00:53:47;2.90;99.90
16625;DHT22;8426;48.496;9.098;2023-04-03T00:58:54;2.90;99.90
16625;DHT22;8426;48.496;9.098;2023-04-03T01:04:02;2.90;99.90
16625;DHT22;8426;48.496;9.098;2023-04-03T01:09:06;2.90;99.90
16625;DHT22;8426;48.496;9.098;2023-04-03T01:14:10;2.80;99.90
16625;DHT22;8426;48.496;9.098;2023-04-03T01:19:16;2.70;99.90
16625;DHT22;8426;48.496;9.098;2023-04-03T01:24:32;2.60;99.90
16625;DHT22;8426;48.496;9.098;2023-04-03T01:29:37;2.70;99.90
16625;DHT22;8426;48.496;9.098;2023-04-03T01:34:42;2.70;99.90
16625;DHT22;8426;48.496;9.098;2023-04-03T01:39:45;2.70;99.90
16625;DHT22;8426;48.496;9.098;2023-04-03T01:44:49;2.70;99.90
16625;DHT22;8426;48.496;9.098;2023-04-03T01:49:54;2.60;99.90
16625;DHT22;8426;48.496;9.098;2023-04-03T01:54:58;2.60;99.90
16625;DHT22;8426;48.496;9.098;2023-04-03T02:00:01;2.60;99.90
16625;DHT22;8426;48.496;9.098;2023-04-03T02:05:07;2.50;99.90
16625;DHT22;8426;48.496;9.098;2023-04-03T02:10:11;2.50;99.90
16625;DHT22;8426;48.496;9.098;2023-04-03T02:15:14;2.50;99.90
16625;DHT22;8426;48.496;9.098;2023-04-03T02:20:20;2.40;99.90
16625;DHT22;8426;48.496;9.098;2023-04-03T02:25:23;2.40;99.90
16625;DHT22;8426;48.496;9.098;2023-04-03T02:30:27;2.40;99.90
16625;DHT22;8426;48.496;9.098;2023-04-03T02:35:31;2.40;99.90
16625;DHT22;8426;48.496;9.098;2023-04-03T02:40:35;2.40;99.90
16625;DHT22;8426;48.496;9.098;2023-04-03T02:45:38;2.40;99.90
16625;DHT22;8426;48.496;9.098;2023-04-03T02:50:43;2.30;99.90
16625;DHT22;8426;48.496;9.098;2023-04-03T02:55:47;2.40;99.90
16625;DHT22;8426;48.496;9.098;2023-04-03T03:00:50;2.40;99.90
16625;DHT22;8426;48.496;9.098;2023-04-03T03:06:02;2.40;99.90
16625;DHT22;8426;48.496;9.098;2023-04-03T03:11:06;2.20;99.90
16625;DHT22;8426;48.496;9.098;2023-04-03T03:16:10;2.30;99.90
16625;DHT22;8426;48.496;9.098;2023-04-03T03:21:15;2.20;99.90
16625;DHT22;8426;48.496;9.098;2023-04-03T03:26:18;2.20;99.90
16625;DHT22;8426;48.496;9.098;2023-04-03T03:31:21;2.20;99.90
16625;DHT22;8426;48.496;9.098;2023-04-03T03:36:26;2.20;99.90
16625;DHT22;8426;48.496;9.098;2023-04-03T03:41:29;2.20;99.90
16625;DHT22;8426;48.496;9.098;2023-04-03T03:46:33;2.20;99.90
16625;DHT22;8426;48.496;9.098;2023-04-03T03:51:38;2.10;99.90
16625;DHT22;8426;48.496;9.098;2023-04-03T03:56:41;2.20;99.90
16625;DHT22;8426;48.496;9.098;2023-04-03T04:01:44;2.10;99.90
16625;DHT22;8426;48.496;9.098;2023-04-03T04:06:49;2.10;99.90
16625;DHT22;8426;48.496;9.098;2023-04-03T04:11:53;2.10;99.90
16625;DHT22;8426;48.496;9.098;2023-04-03T04:16:57;2.10;99.90
16625;DHT22;8426;48.496;9.098;2023-04-03T04:22:03;2.10;99.90
16625;DHT22;8426;48.496;9.098;2023-04-03T04:27:06;2.10;99.90
16625;DHT22;8426;48.496;9.098;2023-04-03T04:32:10;2.00;99.90
16625;DHT22;8426;48.496;9.098;2023-04-03T04:37:14;2.00;99.90
16625;DHT22;8426;48.496;9.098;2023-04-03T04:42:18;2.00;99.90
16625;DHT22;8426;48.496;9.098;2023-04-03T04:47:21;2.00;99.90
16625;DHT22;8426;48.496;9.098;2023-04-03T04:52:26;2.10;99.90
16625;DHT22;8426;48.496;9.098;2023-04-03T04:57:29;2.10;99.90
16625;DHT22;8426;48.496;9.098;2023-04-03T05:02:33;2.10;99.90
16625;DHT22;8426;48.496;9.098;2023-04-03T05:07:38;2.20;99.90
16625;DHT22;8426;48.496;9.098;2023-04-03T05:12:42;2.20;99.90
16625;DHT22;8426;48.496;9.098;2023-04-03T05:17:46;2.20;99.90
16625;DHT22;8426;48.496;9.098;2023-04-03T05:22:51;2.20;99.90
16625;DHT22;8426;48.496;9.098;2023-04-03T05:27:54;2.20;99.90
16625;DHT22;8426;48.496;9.098;2023-04-03T05:32:58;2.20;99.90
16625;DHT22;8426;48.496;9.098;2023-04-03T05:38:03;2.30;99.90
16625;DHT22;8426;48.496;9.098;2023-04-03T05:43:07;2.30;99.90
16625;DHT22;8426;48.496;9.098;2023-04-03T05:48:13;2.30;99.90
16625;DHT22;8426;48.496;9.098;2023-04-03T05:53:21;2.30;99.90
16625;DHT22;8426;48.496;9.098;2023-04-03T05:58:25;2.40;99.90
16625;DHT22;8426;48.496;9.098;2023-04-03T06:03:30;2.40;99.90
16625;DHT22;8426;48.496;9.098;2023-04-03T06:08:38;2.50;99.90
16625;DHT22;8426;48.496;9.098;2023-04-03T06:13:42;2.50;99.90
16625;DHT22;8426;48.496;9.098;2023-04-03T06:18:45;2.60;99.90
16625;DHT22;8426;48.496;9.098;2023-04-03T06:23:50;2.70;99.90
16625;DHT22;8426;48.496;9.098;2023-04-03T06:28:53;2.80;99.90
16625;DHT22;8426;48.496;9.098;2023-04-03T06:33:57;2.90;99.90
16625;DHT22;8426;48.496;9.098;2023-04-03T06:39:01;3.00;99.90
16625;DHT22;8426;48.496;9.098;2023-04-03T06:44:07;3.10;99.90
16625;DHT22;8426;48.496;9.098;2023-04-03T06:49:14;3.10;99.90
16625;DHT22;8426;48.496;9.098;2023-04-03T06:54:26;3.20;99.90
16625;DHT22;8426;48.496;9.098;2023-04-03T06:59:29;3.10;99.90
16625;DHT22;8426;48.496;9.098;2023-04-03T07:04:33;3.30;99.90
16625;DHT22;8426;48.496;9.098;2023-04-03T07:09:38;3.20;99.90
16625;DHT22;8426;48.496;9.098;2023-04-03T07:14:41;3.40;99.90
16625;DHT22;8426;48.496;9.098;2023-04-03T07:19:48;3.70;99.90
16625;DHT22;8426;48.496;9.098;2023-04-03T07:24:55;4.10;99.90
16625;DHT22;8426;48.496;9.098;2023-04-03T07:30:00;4.30;99.90
16625;DHT22;8426;48.496;9.098;2023-04-03T07:35:04;4.90;99.90
16625;DHT22;8426;48.496;9.098;2023-04-03T07:40:10;5.20;99.90
16625;DHT22;8426;48.496;9.098;2023-04-03T07:45:13;5.00;99.90
16625;DHT22;8426;48.496;9.098;2023-04-03T07:50:17;5.30;99.90
16625;DHT22;8426;48.496;9.098;2023-04-03T07:55:22;6.00;99.90
16625;DHT22;8426;48.496;9.098;2023-04-03T08:00:25;7.40;99.90
16625;DHT22;8426;48.496;9.098;2023-04-03T08:05:30;8.30;99.90
16625;DHT22;8426;48.496;9.098;2023-04-03T08:10:40;7.50;99.90
16625;DHT22;8426;48.496;9.098;2023-04-03T08:15:45;8.10;99.90
16625;DHT22;8426;48.496;9.098;2023-04-03T08:20:50;9.80;99.90
16625;DHT22;8426;48.496;9.098;2023-04-03T08:25:55;9.50;99.90
16625;DHT22;8426;48.496;9.098;2023-04-03T08:31:03;8.80;99.90
16625;DHT22;8426;48.496;9.098;2023-04-03T08:36:16;7.90;99.90
16625;DHT22;8426;48.496;9.098;2023-04-03T08:41:29;7.10;99.90
16625;DHT22;8426;48.496;9.098;2023-04-03T08:52:16;6.50;99.90
16625;DHT22;8426;48.496;9.098;2023-04-03T08:57:29;6.10;99.90
16625;DHT22;8426;48.496;9.098;2023-04-03T09:02:40;6.20;99.90
16625;DHT22;8426;48.496;9.098;2023-04-03T09:07:47;6.50;99.90
16625;DHT22;8426;48.496;9.098;2023-04-03T09:12:59;6.70;99.90
16625;DHT22;8426;48.496;9.098;2023-04-03T09:18:11;6.80;99.90
16625;DHT22;8426;48.496;9.098;2023-04-03T09:23:22;6.50;99.90
16625;DHT22;8426;48.496;9.098;2023-04-03T09:28:30;7.10;99.90
16625;DHT22;8426;48.496;9.098;2023-04-03T09:33:50;7.40;99.90
16625;DHT22;8426;48.496;9.098;2023-04-03T09:39:03;6.70;99.90
16625;DHT22;8426;48.496;9.098;2023-04-03T09:44:23;6.80;99.90
16625;DHT22;8426;48.496;9.098;2023-04-03T09:49:27;6.70;99.90
16625;DHT22;8426;48.496;9.098;2023-04-03T09:54:33;6.40;99.90
16625;DHT22;8426;48.496;9.098;2023-04-03T09:59:47;6.80;99.90
16625;DHT22;8426;48.496;9.098;2023-04-03T10:04:59;7.00;99.90
16625;DHT22;8426;48.496;9.098;2023-04-03T10:10:18;6.80;99.90
16625;DHT22;8426;48.496;9.098;2023-04-03T10:15:25;6.60;99.90
16625;DHT22;8426;48.496;9.098;2023-04-03T10:20:34;6.40;99.90
16625;DHT22;8426;48.496;9.098;2023-04-03T10:25:45;6.70;99.90
16625;DHT22;8426;48.496;9.098;2023-04-03T10:31:02;6.70;99.90
16625;DHT22;8426;48.496;9.098;2023-04-03T10:36:23;7.30;99.90
16625;DHT22;8426;48.496;9.098;2023-04-03T10:41:40;6.90;99.90
16625;DHT22;8426;48.496;9.098;2023-04-03T10:46:52;6.60;99.90
16625;DHT22;8426;48.496;9.098;2023-04-03T10:52:00;6.40;99.90
16625;DHT22;8426;48.496;9.098;2023-04-03T10:57:08;6.20;99.90
16625;DHT22;8426;48.496;9.098;2023-04-03T11:02:23;6.40;99.90
16625;DHT22;8426;48.496;9.098;2023-04-03T11:07:34;6.30;99.90
16625;DHT22;8426;48.496;9.098;2023-04-03T11:12:43;6.50;99.90
16625;DHT22;8426;48.496;9.098;2023-04-03T11:17:53;6.50;99.90
16625;DHT22;8426;48.496;9.098;2023-04-03T11:23:01;6.60;99.90
16625;DHT22;8426;48.496;9.098;2023-04-03T11:28:13;6.90;99.90
16625;DHT22;8426;48.496;9.098;2023-04-03T11:33:31;6.80;99.90
16625;DHT22;8426;48.496;9.098;2023-04-03T11:38:43;6.60;99.90
16625;DHT22;8426;48.496;9.098;2023-04-03T11:43:57;6.60;99.90
16625;DHT22;8426;48.496;9.098;2023-04-03T11:49:04;6.60;99.90
16625;DHT22;8426;48.496;9.098;2023-04-03T11:54:36;6.50;99.90
16625;DHT22;8426;48.496;9.098;2023-04-03T11:59:46;6.50;99.90
16625;DHT22;8426;48.496;9.098;2023-04-03T12:05:26;6.40;99.90
16625;DHT22;8426;48.496;9.098;2023-04-03T12:10:30;6.40;99.90
16625;DHT22;8426;48.496;9.098;2023-04-03T12:15:54;6.60;99.90
16625;DHT22;8426;48.496;9.098;2023-04-03T12:21:04;6.60;99.90
16625;DHT22;8426;48.496;9.098;2023-04-03T12:26:20;6.60;99.90
16625;DHT22;8426;48.496;9.098;2023-04-03T12:31:36;6.30;99.90
16625;DHT22;8426;48.496;9.098;2023-04-03T12:36:57;6.30;99.90
16625;DHT22;8426;48.496;9.098;2023-04-03T12:42:16;6.50;99.90
16625;DHT22;8426;48.496;9.098;2023-04-03T12:47:29;6.50;99.90
16625;DHT22;8426;48.496;9.098;2023-04-03T12:52:41;6.70;99.90
16625;DHT22;8426;48.496;9.098;2023-04-03T12:57:45;6.70;99.90
16625;DHT22;8426;48.496;9.098;2023-04-03T13:02:49;6.80;99.90
16625;DHT22;8426;48.496;9.098;2023-04-03T13:08:19;6.90;99.90
16625;DHT22;8426;48.496;9.098;2023-04-03T13:13:23;6.70;99.90
16625;DHT22;8426;48.496;9.098;2023-04-03T13:18:34;6.80;99.90
16625;DHT22;8426;48.496;9.098;2023-04-03T13:23:42;6.80;99.90
16625;DHT22;8426;48.496;9.098;2023-04-03T13:28:48;6.80;99.90
16625;DHT22;8426;48.496;9.098;2023-04-03T13:33:57;6.70;99.90
16625;DHT22;8426;48.496;9.098;2023-04-03T13:39:06;6.60;99.90
16625;DHT22;8426;48.496;9.098;2023-04-03T13:44:30;7.00;99.90
16625;DHT22;8426;48.496;9.098;2023-04-03T13:49:40;6.90;99.90
16625;DHT22;8426;48.496;9.098;2023-04-03T13:54:46;7.00;99.90
16625;DHT22;8426;48.496;9.098;2023-04-03T13:59:51;7.00;99.90
16625;DHT22;8426;48.496;9.098;2023-04-03T14:04:58;6.80;99.90
16625;DHT22;8426;48.496;9.098;2023-04-03T14:10:09;6.30;99.90
16625;DHT22;8426;48.496;9.098;2023-04-03T14:15:18;6.20;99.90
16625;DHT22;8426;48.496;9.098;2023-04-03T14:20:25;6.30;99.90
16625;DHT22;8426;48.496;9.098;2023-04-03T14:25:31;6.30;99.90
16625;DHT22;8426;48.496;9.098;2023-04-03T14:30:34;6.70;99.90
16625;DHT22;8426;48.496;9.098;2023-04-03T14:35:39;7.00;99.90
16625;DHT22;8426;48.496;9.098;2023-04-03T14:40:44;7.00;99.90
16625;DHT22;8426;48.496;9.098;2023-04-03T14:45:48;6.80;99.90
16625;DHT22;8426;48.496;9.098;2023-04-03T14:50:53;6.70;99.90
16625;DHT22;8426;48.496;9.098;2023-04-03T14:56:13;6.50;99.90
16625;DHT22;8426;48.496;9.098;2023-04-03T15:01:17;6.30;99.90
16625;DHT22;8426;48.496;9.098;2023-04-03T15:06:21;6.50;99.90
16625;DHT22;8426;48.496;9.098;2023-04-03T15:11:25;6.50;99.90
16625;DHT22;8426;48.496;9.098;2023-04-03T15:16:29;6.70;99.90
16625;DHT22;8426;48.496;9.098;2023-04-03T15:21:34;6.60;99.90
16625;DHT22;8426;48.496;9.098;2023-04-03T15:26:39;6.50;99.90
16625;DHT22;8426;48.496;9.098;2023-04-03T15:31:43;6.60;99.90
16625;DHT22;8426;48.496;9.098;2023-04-03T15:36:49;6.70;99.90
16625;DHT22;8426;48.496;9.098;2023-04-03T15:41:56;6.30;99.90
16625;DHT22;8426;48.496;9.098;2023-04-03T15:47:02;6.00;99.90
16625;DHT22;8426;48.496;9.098;2023-04-03T15:52:08;6.10;99.90
16625;DHT22;8426;48.496;9.098;2023-04-03T15:57:37;6.00;99.90
16625;DHT22;8426;48.496;9.098;2023-04-03T16:02:46;5.90;99.90
16625;DHT22;8426;48.496;9.098;2023-04-03T16:07:50;6.10;99.90
16625;DHT22;8426;48.496;9.098;2023-04-03T16:12:55;6.00;99.90
16625;DHT22;8426;48.496;9.098;2023-04-03T16:17:59;5.90;99.90
16625;DHT22;8426;48.496;9.098;2023-04-03T16:23:03;5.80;99.90
16625;DHT22;8426;48.496;9.098;2023-04-03T16:28:08;5.90;99.90
16625;DHT22;8426;48.496;9.098;2023-04-03T16:33:12;6.00;99.90
16625;DHT22;8426;48.496;9.098;2023-04-03T16:38:16;6.00;99.90
16625;DHT22;8426;48.496;9.098;2023-04-03T16:43:22;5.80;99.90
16625;DHT22;8426;48.496;9.098;2023-04-03T16:48:25;5.60;99.90
16625;DHT22;8426;48.496;9.098;2023-04-03T16:53:31;5.60;99.90
16625;DHT22;8426;48.496;9.098;2023-04-03T16:58:36;5.50;99.90
16625;DHT22;8426;48.496;9.098;2023-04-03T17:03:39;5.30;99.90
16625;DHT22;8426;48.496;9.098;2023-04-03T17:08:44;5.10;99.90
16625;DHT22;8426;48.496;9.098;2023-04-03T17:13:49;5.00;99.90
16625;DHT22;8426;48.496;9.098;2023-04-03T17:18:54;5.00;99.90
16625;DHT22;8426;48.496;9.098;2023-04-03T17:24:03;4.90;99.90
16625;DHT22;8426;48.496;9.098;2023-04-03T17:29:12;4.70;99.90
16625;DHT22;8426;48.496;9.098;2023-04-03T17:34:16;4.50;99.90
16625;DHT22;8426;48.496;9.098;2023-04-03T17:39:20;4.50;99.90
16625;DHT22;8426;48.496;9.098;2023-04-03T17:44:25;4.50;99.90
16625;DHT22;8426;48.496;9.098;2023-04-03T17:49:29;4.60;99.90
16625;DHT22;8426;48.496;9.098;2023-04-03T17:54:34;4.50;99.90
16625;DHT22;8426;48.496;9.098;2023-04-03T17:59:39;4.50;99.90
16625;DHT22;8426;48.496;9.098;2023-04-03T18:04:42;4.40;99.90
16625;DHT22;8426;48.496;9.098;2023-04-03T18:09:46;4.20;99.90
16625;DHT22;8426;48.496;9.098;2023-04-03T18:14:52;4.00;99.90
16625;DHT22;8426;48.496;9.098;2023-04-03T18:19:57;3.80;99.90
16625;DHT22;8426;48.496;9.098;2023-04-03T18:25:01;3.60;99.90
16625;DHT22;8426;48.496;9.098;2023-04-03T18:30:10;3.40;99.90
16625;DHT22;8426;48.496;9.098;2023-04-03T18:35:15;3.40;99.90
16625;DHT22;8426;48.496;9.098;2023-04-03T18:40:18;3.30;99.90
16625;DHT22;8426;48.496;9.098;2023-04-03T18:45:26;3.30;99.90
16625;DHT22;8426;48.496;9.098;2023-04-03T18:50:30;3.20;99.90
16625;DHT22;8426;48.496;9.098;2023-04-03T18:55:33;3.00;99.90
16625;DHT22;8426;48.496;9.098;2023-04-03T19:00:41;2.90;99.90
16625;DHT22;8426;48.496;9.098;2023-04-03T19:05:45;3.00;99.90
16625;DHT22;8426;48.496;9.098;2023-04-03T19:10:50;3.00;99.90
16625;DHT22;8426;48.496;9.098;2023-04-03T19:15:56;3.00;99.90
16625;DHT22;8426;48.496;9.098;2023-04-03T19:21:00;3.00;99.90
16625;DHT22;8426;48.496;9.098;2023-04-03T19:26:08;3.10;99.90
16625;DHT22;8426;48.496;9.098;2023-04-03T19:31:16;3.10;99.90
16625;DHT22;8426;48.496;9.098;2023-04-03T19:36:23;3.20;99.90
16625;DHT22;8426;48.496;9.098;2023-04-03T19:41:29;3.20;99.90
16625;DHT22;8426;48.496;9.098;2023-04-03T19:46:35;3.20;99.90
16625;DHT22;8426;48.496;9.098;2023-04-03T19:51:38;3.10;99.90
16625;DHT22;8426;48.496;9.098;2023-04-03T19:56:42;3.10;99.90
16625;DHT22;8426;48.496;9.098;2023-04-03T20:01:48;3.00;99.90
16625;DHT22;8426;48.496;9.098;2023-04-03T20:06:52;3.20;99.90
16625;DHT22;8426;48.496;9.098;2023-04-03T20:11:55;3.20;99.90
16625;DHT22;8426;48.496;9.098;2023-04-03T20:17:02;3.20;99.90
16625;DHT22;8426;48.496;9.098;2023-04-03T20:22:07;3.10;99.90
16625;DHT22;8426;48.496;9.098;2023-04-03T20:27:10;3.00;99.90
16625;DHT22;8426;48.496;9.098;2023-04-03T20:32:15;2.90;99.90
16625;DHT22;8426;48.496;9.098;2023-04-03T20:37:19;2.80;99.90
16625;DHT22;8426;48.496;9.098;2023-04-03T20:42:24;2.80;99.90
16625;DHT22;8426;48.496;9.098;2023-04-03T20:47:30;2.70;99.90
16625;DHT22;8426;48.496;9.098;2023-04-03T20:52:33;2.80;99.90
16625;DHT22;8426;48.496;9.098;2023-04-03T20:57:37;2.80;99.90
16625;DHT22;8426;48.496;9.098;2023-04-03T21:02:42;2.60;99.90
16625;DHT22;8426;48.496;9.098;2023-04-03T21:19:12;2.30;99.90
16625;DHT22;8426;48.496;9.098;2023-04-03T21:24:17;2.30;99.90
16625;DHT22;8426;48.496;9.098;2023-04-03T21:29:22;2.20;99.90
16625;DHT22;8426;48.496;9.098;2023-04-03T21:34:27;2.00;99.90
16625;DHT22;8426;48.496;9.098;2023-04-03T21:39:31;1.90;99.90
16625;DHT22;8426;48.496;9.098;2023-04-03T21:44:36;1.80;99.90
16625;DHT22;8426;48.496;9.098;2023-04-03T21:49:41;1.70;99.90
16625;DHT22;8426;48.496;9.098;2023-04-03T21:54:45;1.60;99.90
16625;DHT22;8426;48.496;9.098;2023-04-03T21:59:48;1.50;99.90
16625;DHT22;8426;48.496;9.098;2023-04-03T22:04:53;1.40;99.90
16625;DHT22;8426;48.496;9.098;2023-04-03T22:09:56;1.30;99.90
16625;DHT22;8426;48.496;9.098;2023-04-03T22:14:59;1.20;99.90
16625;DHT22;8426;48.496;9.098;2023-04-03T22:20:07;1.10;99.90
16625;DHT22;8426;48.496;9.098;2023-04-03T22:25:10;0.90;99.90
16625;DHT22;8426;48.496;9.098;2023-04-03T22:30:14;0.80;99.90
16625;DHT22;8426;48.496;9.098;2023-04-03T22:35:19;0.70;99.90
16625;DHT22;8426;48.496;9.098;2023-04-03T22:40:24;0.60;99.90
16625;DHT22;8426;48.496;9.098;2023-04-03T22:45:28;0.50;99.90
16625;DHT22;8426;48.496;9.098;2023-04-03T22:50:32;0.40;99.90
16625;DHT22;8426;48.496;9.098;2023-04-03T22:55:38;0.30;99.90
16625;DHT22;8426;48.496;9.098;2023-04-03T23:00:41;0.30;99.90
16625;DHT22;8426;48.496;9.098;2023-04-03T23:05:46;0.20;99.90
16625;DHT22;8426;48.496;9.098;2023-04-03T23:10:53;0.20;99.90
16625;DHT22;8426;48.496;9.098;2023-04-03T23:15:58;0.10;99.90
16625;DHT22;8426;48.496;9.098;2023-04-03T23:21:03;0.00;99.90
16625;DHT22;8426;48.496;9.098;2023-04-03T23:26:08;-0.20;99.90
16625;DHT22;8426;48.496;9.098;2023-04-03T23:31:12;-0.30;99.90
16625;DHT22;8426;48.496;9.098;2023-04-03T23:36:16;-0.40;99.90
16625;DHT22;8426;48.496;9.098;2023-04-03T23:41:21;-0.40;99.90
16625;DHT22;8426;48.496;9.098;2023-04-03T23:46:25;-0.40;99.90
16625;DHT22;8426;48.496;9.098;2023-04-03T23:51:30;-0.50;99.90
16625;DHT22;8426;48.496;9.098;2023-04-03T23:56:33;-0.40;99.90
